sensor_id;sensor_type;location;lat;lon;timestamp;temperature;humidity
5009;DHT22;2523;51.058;6.922;2023-12-14T00:00:25;8.60;99.90
5009;DHT22;2523;51.058;6.922;2023-12-14T00:02:50;8.60;99.90
5009;DHT22;2523;51.058;6.922;2023-12-14T00:05:16;8.60;99.90
5009;DHT22;2523;51.058;6.922;2023-12-14T00:07:41;8.70;99.90
5009;DHT22;2523;51.058;6.922;2023-12-14T00:10:07;8.60;99.90
5009;DHT22;2523;51.058;6.922;2023-12-14T00:12:33;8.60;99.90
5009;DHT22;2523;51.058;6.922;2023-12-14T00:14:58;8.60;99.90
5009;DHT22;2523;51.058;6.922;2023-12-14T00:17:24;8.60;99.90
5009;DHT22;2523;51.058;6.922;2023-12-14T00:19:49;8.70;99.90
5009;DHT22;2523;51.058;6.922;2023-12-14T00:22:15;8.70;99.90
5009;DHT22;2523;51.058;6.922;2023-12-14T00:24:41;8.60;99.90
5009;DHT22;2523;51.058;6.922;2023-12-14T00:27:07;8.70;99.90
5009;DHT22;2523;51.058;6.922;2023-12-14T00:29:33;8.70;99.90
5009;DHT22;2523;51.058;6.922;2023-12-14T00:31:58;8.70;99.90
5009;DHT22;2523;51.058;6.922;2023-12-14T00:34:24;8.70;99.90
5009;DHT22;2523;51.058;6.922;2023-12-14T00:36:49;8.70;99.90
5009;DHT22;2523;51.058;6.922;2023-12-14T00:39:15;8.70;99.90
5009;DHT22;2523;51.058;6.922;2023-12-14T00:41:40;8.70;99.90
5009;DHT22;2523;51.058;6.922;2023-12-14T00:44:06;8.70;99.90
5009;DHT22;2523;51.058;6.922;2023-12-14T00:46:31;8.70;99.90
5009;DHT22;2523;51.058;6.922;2023-12-14T00:48:57;8.70;99.90
5009;DHT22;2523;51.058;6.922;2023-12-14T00:51:23;8.70;99.90
5009;DHT22;2523;51.058;6.922;2023-12-14T00:53:48;8.80;99.90
5009;DHT22;2523;51.058;6.922;2023-12-14T00:56:13;8.70;99.90
5009;DHT22;2523;51.058;6.922;2023-12-14T00:58:39;8.70;99.90
5009;DHT22;2523;51.058;6.922;2023-12-14T01:01:05;8.70;99.90
5009;DHT22;2523;51.058;6.922;2023-12-14T01:03:30;8.70;99.90
5009;DHT22;2523;51.058;6.922;2023-12-14T01:05:56;8.70;99.90
5009;DHT22;2523;51.058;6.922;2023-12-14T01:08:21;8.80;99.90
5009;DHT22;2523;51.058;6.922;2023-12-14T01:10:47;8.70;99.90
5009;DHT22;2523;51.058;6.922;2023-12-14T01:13:13;8.70;99.90
5009;DHT22;2523;51.058;6.922;2023-12-14T01:15:39;8.80;99.90
5009;DHT22;2523;51.058;6.922;2023-12-14T01:18:04;8.70;99.90
5009;DHT22;2523;51.058;6.922;2023-12-14T01:20:30;8.80;99.90
5009;DHT22;2523;51.058;6.922;2023-12-14T01:22:55;8.80;99.90
5009;DHT22;2523;51.058;6.922;2023-12-14T01:25:21;8.70;99.90
5009;DHT22;2523;51.058;6.922;2023-12-14T01:27:46;8.70;99.90
5009;DHT22;2523;51.058;6.922;2023-12-14T01:30:12;8.70;99.90
5009;DHT22;2523;51.058;6.922;2023-12-14T01:32:38;8.70;99.90
5009;DHT22;2523;51.058;6.922;2023-12-14T01:35:04;8.70;99.90
5009;DHT22;2523;51.058;6.922;2023-12-14T01:37:29;8.70;99.90
5009;DHT22;2523;51.058;6.922;2023-12-14T01:39:55;8.70;99.90
5009;DHT22;2523;51.058;6.922;2023-12-14T01:42:21;8.70;99.90
5009;DHT22;2523;51.058;6.922;2023-12-14T01:44:46;8.70;99.90
5009;DHT22;2523;51.058;6.922;2023-12-14T01:47:12;8.70;99.90
5009;DHT22;2523;51.058;6.922;2023-12-14T01:49:37;8.70;99.90
5009;DHT22;2523;51.058;6.922;2023-12-14T01:52:03;8.70;99.90
5009;DHT22;2523;51.058;6.922;2023-12-14T01:54:28;8.70;99.90
5009;DHT22;2523;51.058;6.922;2023-12-14T01:56:54;8.70;99.90
5009;DHT22;2523;51.058;6.922;2023-12-14T01:59:20;8.70;99.90
5009;DHT22;2523;51.058;6.922;2023-12-14T02:01:47;8.70;99.90
5009;DHT22;2523;51.058;6.922;2023-12-14T02:04:17;8.70;99.90
5009;DHT22;2523;51.058;6.922;2023-12-14T02:06:43;8.70;99.90
5009;DHT22;2523;51.058;6.922;2023-12-14T02:09:08;8.70;99.90
5009;DHT22;2523;51.058;6.922;2023-12-14T02:11:35;8.70;99.90
5009;DHT22;2523;51.058;6.922;2023-12-14T02:14:09;8.70;99.90
5009;DHT22;2523;51.058;6.922;2023-12-14T02:16:34;8.60;99.90
5009;DHT22;2523;51.058;6.922;2023-12-14T02:19:00;8.50;99.90
5009;DHT22;2523;51.058;6.922;2023-12-14T02:21:26;8.40;99.90
5009;DHT22;2523;51.058;6.922;2023-12-14T02:23:51;8.40;99.90
5009;DHT22;2523;51.058;6.922;2023-12-14T02:26:17;8.30;99.90
5009;DHT22;2523;51.058;6.922;2023-12-14T02:28:42;8.30;99.90
5009;DHT22;2523;51.058;6.922;2023-12-14T02:31:08;8.30;99.90
5009;DHT22;2523;51.058;6.922;2023-12-14T02:33:33;8.30;99.90
5009;DHT22;2523;51.058;6.922;2023-12-14T02:35:59;8.30;99.90
5009;DHT22;2523;51.058;6.922;2023-12-14T02:38:25;8.30;99.90
5009;DHT22;2523;51.058;6.922;2023-12-14T02:40:50;8.30;99.90
5009;DHT22;2523;51.058;6.922;2023-12-14T02:43:18;8.30;99.90
5009;DHT22;2523;51.058;6.922;2023-12-14T02:45:44;8.20;99.90
5009;DHT22;2523;51.058;6.922;2023-12-14T02:48:10;8.30;99.90
5009;DHT22;2523;51.058;6.922;2023-12-14T02:50:35;8.20;99.90
5009;DHT22;2523;51.058;6.922;2023-12-14T02:53:00;8.20;99.90
5009;DHT22;2523;51.058;6.922;2023-12-14T02:55:26;8.10;99.90
5009;DHT22;2523;51.058;6.922;2023-12-14T02:57:51;8.10;99.90
5009;DHT22;2523;51.058;6.922;2023-12-14T03:00:17;8.10;99.90
5009;DHT22;2523;51.058;6.922;2023-12-14T03:02:43;8.10;99.90
5009;DHT22;2523;51.058;6.922;2023-12-14T03:05:08;8.10;99.90
5009;DHT22;2523;51.058;6.922;2023-12-14T03:07:34;8.10;99.90
5009;DHT22;2523;51.058;6.922;2023-12-14T03:09:59;8.00;99.90
5009;DHT22;2523;51.058;6.922;2023-12-14T03:12:25;8.00;99.90
5009;DHT22;2523;51.058;6.922;2023-12-14T03:14:50;7.90;99.90
5009;DHT22;2523;51.058;6.922;2023-12-14T03:17:16;8.00;99.90
5009;DHT22;2523;51.058;6.922;2023-12-14T03:19:42;7.90;99.90
5009;DHT22;2523;51.058;6.922;2023-12-14T03:22:08;7.90;99.90
5009;DHT22;2523;51.058;6.922;2023-12-14T03:24:35;7.90;99.90
5009;DHT22;2523;51.058;6.922;2023-12-14T03:27:01;7.90;99.90
5009;DHT22;2523;51.058;6.922;2023-12-14T03:29:27;7.80;99.90
5009;DHT22;2523;51.058;6.922;2023-12-14T03:31:53;7.80;99.90
5009;DHT22;2523;51.058;6.922;2023-12-14T03:34:18;7.70;99.90
5009;DHT22;2523;51.058;6.922;2023-12-14T03:36:44;7.70;99.90
5009;DHT22;2523;51.058;6.922;2023-12-14T03:39:09;7.80;99.90
5009;DHT22;2523;51.058;6.922;2023-12-14T03:41:35;7.70;99.90
5009;DHT22;2523;51.058;6.922;2023-12-14T03:44:01;7.70;99.90
5009;DHT22;2523;51.058;6.922;2023-12-14T03:46:26;7.70;99.90
5009;DHT22;2523;51.058;6.922;2023-12-14T03:48:52;7.80;99.90
5009;DHT22;2523;51.058;6.922;2023-12-14T03:51:19;7.70;99.90
5009;DHT22;2523;51.058;6.922;2023-12-14T03:53:44;7.70;99.90
5009;DHT22;2523;51.058;6.922;2023-12-14T03:56:10;7.60;99.90
5009;DHT22;2523;51.058;6.922;2023-12-14T03:58:36;7.60;99.90
5009;DHT22;2523;51.058;6.922;2023-12-14T04:01:01;7.60;99.90
5009;DHT22;2523;51.058;6.922;2023-12-14T04:03:27;7.60;99.90
5009;DHT22;2523;51.058;6.922;2023-12-14T04:05:52;7.60;99.90
5009;DHT22;2523;51.058;6.922;2023-12-14T04:08:18;7.60;99.90
5009;DHT22;2523;51.058;6.922;2023-12-14T04:10:43;7.60;99.90
5009;DHT22;2523;51.058;6.922;2023-12-14T04:13:09;7.60;99.90
5009;DHT22;2523;51.058;6.922;2023-12-14T04:15:34;7.60;99.90
5009;DHT22;2523;51.058;6.922;2023-12-14T04:18:00;7.60;99.90
5009;DHT22;2523;51.058;6.922;2023-12-14T04:20:25;7.60;99.90
5009;DHT22;2523;51.058;6.922;2023-12-14T04:22:51;7.60;99.90
5009;DHT22;2523;51.058;6.922;2023-12-14T04:25:16;7.60;99.90
5009;DHT22;2523;51.058;6.922;2023-12-14T04:27:42;7.50;99.90
5009;DHT22;2523;51.058;6.922;2023-12-14T04:30:08;7.60;99.90
5009;DHT22;2523;51.058;6.922;2023-12-14T04:32:38;7.60;99.90
5009;DHT22;2523;51.058;6.922;2023-12-14T04:35:04;7.50;99.90
5009;DHT22;2523;51.058;6.922;2023-12-14T04:37:30;7.50;99.90
5009;DHT22;2523;51.058;6.922;2023-12-14T04:39:57;7.40;99.90
5009;DHT22;2523;51.058;6.922;2023-12-14T04:42:22;7.40;99.90
5009;DHT22;2523;51.058;6.922;2023-12-14T04:44:48;7.40;99.90
5009;DHT22;2523;51.058;6.922;2023-12-14T04:47:13;7.40;99.90
5009;DHT22;2523;51.058;6.922;2023-12-14T04:49:39;7.40;99.90
5009;DHT22;2523;51.058;6.922;2023-12-14T04:52:05;7.40;99.90
5009;DHT22;2523;51.058;6.922;2023-12-14T04:54:31;7.40;99.90
5009;DHT22;2523;51.058;6.922;2023-12-14T04:56:57;7.40;99.90
5009;DHT22;2523;51.058;6.922;2023-12-14T04:59:22;7.40;99.90
5009;DHT22;2523;51.058;6.922;2023-12-14T05:01:48;7.40;99.90
5009;DHT22;2523;51.058;6.922;2023-12-14T05:04:13;7.50;99.90
5009;DHT22;2523;51.058;6.922;2023-12-14T05:06:39;7.40;99.90
5009;DHT22;2523;51.058;6.922;2023-12-14T05:09:04;7.40;99.90
5009;DHT22;2523;51.058;6.922;2023-12-14T05:11:31;7.40;99.90
5009;DHT22;2523;51.058;6.922;2023-12-14T05:13:57;7.40;99.90
5009;DHT22;2523;51.058;6.922;2023-12-14T05:16:23;7.40;99.90
5009;DHT22;2523;51.058;6.922;2023-12-14T05:18:55;7.40;99.90
5009;DHT22;2523;51.058;6.922;2023-12-14T05:21:21;7.40;99.90
5009;DHT22;2523;51.058;6.922;2023-12-14T05:23:46;7.30;99.90
5009;DHT22;2523;51.058;6.922;2023-12-14T05:26:12;7.30;99.90
5009;DHT22;2523;51.058;6.922;2023-12-14T05:28:37;7.30;99.90
5009;DHT22;2523;51.058;6.922;2023-12-14T05:31:03;7.20;99.90
5009;DHT22;2523;51.058;6.922;2023-12-14T05:33:29;7.30;99.90
5009;DHT22;2523;51.058;6.922;2023-12-14T05:35:56;7.20;99.90
5009;DHT22;2523;51.058;6.922;2023-12-14T05:38:22;7.20;99.90
5009;DHT22;2523;51.058;6.922;2023-12-14T05:40:47;7.20;99.90
5009;DHT22;2523;51.058;6.922;2023-12-14T05:43:13;7.20;99.90
5009;DHT22;2523;51.058;6.922;2023-12-14T05:45:39;7.10;99.90
5009;DHT22;2523;51.058;6.922;2023-12-14T05:48:04;7.10;99.90
5009;DHT22;2523;51.058;6.922;2023-12-14T05:50:31;7.10;99.90
5009;DHT22;2523;51.058;6.922;2023-12-14T05:52:56;7.10;99.90
5009;DHT22;2523;51.058;6.922;2023-12-14T05:55:22;7.10;99.90
5009;DHT22;2523;51.058;6.922;2023-12-14T05:57:48;7.10;99.90
5009;DHT22;2523;51.058;6.922;2023-12-14T06:00:14;7.10;99.90
5009;DHT22;2523;51.058;6.922;2023-12-14T06:02:39;7.10;99.90
5009;DHT22;2523;51.058;6.922;2023-12-14T06:05:07;7.10;99.90
5009;DHT22;2523;51.058;6.922;2023-12-14T06:07:32;7.10;99.90
5009;DHT22;2523;51.058;6.922;2023-12-14T06:09:58;7.10;99.90
5009;DHT22;2523;51.058;6.922;2023-12-14T06:12:24;7.10;99.90
5009;DHT22;2523;51.058;6.922;2023-12-14T06:14:49;7.10;99.90
5009;DHT22;2523;51.058;6.922;2023-12-14T06:17:15;7.10;99.90
5009;DHT22;2523;51.058;6.922;2023-12-14T06:19:41;7.10;99.90
5009;DHT22;2523;51.058;6.922;2023-12-14T06:22:07;7.10;99.90
5009;DHT22;2523;51.058;6.922;2023-12-14T06:24:33;7.10;99.90
5009;DHT22;2523;51.058;6.922;2023-12-14T06:26:58;7.10;99.90
5009;DHT22;2523;51.058;6.922;2023-12-14T06:29:24;7.20;99.90
5009;DHT22;2523;51.058;6.922;2023-12-14T06:31:49;7.20;99.90
5009;DHT22;2523;51.058;6.922;2023-12-14T06:34:16;7.20;99.90
5009;DHT22;2523;51.058;6.922;2023-12-14T06:36:45;7.20;99.90
5009;DHT22;2523;51.058;6.922;2023-12-14T06:39:11;7.20;99.90
5009;DHT22;2523;51.058;6.922;2023-12-14T06:41:37;7.20;99.90
5009;DHT22;2523;51.058;6.922;2023-12-14T06:44:03;7.20;99.90
5009;DHT22;2523;51.058;6.922;2023-12-14T06:46:28;7.20;99.90
5009;DHT22;2523;51.058;6.922;2023-12-14T06:48:54;7.10;99.90
5009;DHT22;2523;51.058;6.922;2023-12-14T06:51:21;7.20;99.90
5009;DHT22;2523;51.058;6.922;2023-12-14T06:53:46;7.20;99.90
5009;DHT22;2523;51.058;6.922;2023-12-14T06:56:13;7.20;99.90
5009;DHT22;2523;51.058;6.922;2023-12-14T06:58:40;7.20;99.90
5009;DHT22;2523;51.058;6.922;2023-12-14T07:01:07;7.20;99.90
5009;DHT22;2523;51.058;6.922;2023-12-14T07:03:33;7.20;99.90
5009;DHT22;2523;51.058;6.922;2023-12-14T07:05:58;7.20;99.90
5009;DHT22;2523;51.058;6.922;2023-12-14T07:08:24;7.20;99.90
5009;DHT22;2523;51.058;6.922;2023-12-14T07:10:50;7.20;99.90
5009;DHT22;2523;51.058;6.922;2023-12-14T07:13:16;7.20;99.90
5009;DHT22;2523;51.058;6.922;2023-12-14T07:15:41;7.20;99.90
5009;DHT22;2523;51.058;6.922;2023-12-14T07:18:07;7.20;99.90
5009;DHT22;2523;51.058;6.922;2023-12-14T07:20:32;7.20;99.90
5009;DHT22;2523;51.058;6.922;2023-12-14T07:22:58;7.10;99.90
5009;DHT22;2523;51.058;6.922;2023-12-14T07:25:23;7.10;99.90
5009;DHT22;2523;51.058;6.922;2023-12-14T07:27:52;7.00;99.90
5009;DHT22;2523;51.058;6.922;2023-12-14T07:30:18;7.10;99.90
5009;DHT22;2523;51.058;6.922;2023-12-14T07:32:44;7.10;99.90
5009;DHT22;2523;51.058;6.922;2023-12-14T07:35:09;7.00;99.90
5009;DHT22;2523;51.058;6.922;2023-12-14T07:37:35;7.00;99.90
5009;DHT22;2523;51.058;6.922;2023-12-14T07:40:01;7.00;99.90
5009;DHT22;2523;51.058;6.922;2023-12-14T07:42:27;7.00;99.90
5009;DHT22;2523;51.058;6.922;2023-12-14T07:44:52;7.00;99.90
5009;DHT22;2523;51.058;6.922;2023-12-14T07:47:19;7.00;99.90
5009;DHT22;2523;51.058;6.922;2023-12-14T07:49:45;7.00;99.90
5009;DHT22;2523;51.058;6.922;2023-12-14T07:52:11;7.00;99.90
5009;DHT22;2523;51.058;6.922;2023-12-14T07:54:38;6.90;99.90
5009;DHT22;2523;51.058;6.922;2023-12-14T07:57:05;6.90;99.90
5009;DHT22;2523;51.058;6.922;2023-12-14T07:59:30;6.90;99.90
5009;DHT22;2523;51.058;6.922;2023-12-14T08:01:56;6.90;99.90
5009;DHT22;2523;51.058;6.922;2023-12-14T08:04:21;6.90;99.90
5009;DHT22;2523;51.058;6.922;2023-12-14T08:06:47;6.80;99.90
5009;DHT22;2523;51.058;6.922;2023-12-14T08:09:12;6.90;99.90
5009;DHT22;2523;51.058;6.922;2023-12-14T08:11:38;6.80;99.90
5009;DHT22;2523;51.058;6.922;2023-12-14T08:14:03;6.80;99.90
5009;DHT22;2523;51.058;6.922;2023-12-14T08:16:29;6.80;99.90
5009;DHT22;2523;51.058;6.922;2023-12-14T08:18:55;6.80;99.90
5009;DHT22;2523;51.058;6.922;2023-12-14T08:21:20;6.80;99.90
5009;DHT22;2523;51.058;6.922;2023-12-14T08:23:46;6.90;99.90
5009;DHT22;2523;51.058;6.922;2023-12-14T08:26:12;6.80;99.90
5009;DHT22;2523;51.058;6.922;2023-12-14T08:28:38;6.80;99.90
5009;DHT22;2523;51.058;6.922;2023-12-14T08:31:04;6.80;99.90
5009;DHT22;2523;51.058;6.922;2023-12-14T08:33:30;6.80;99.90
5009;DHT22;2523;51.058;6.922;2023-12-14T08:35:56;6.80;99.90
5009;DHT22;2523;51.058;6.922;2023-12-14T08:38:22;6.80;99.90
5009;DHT22;2523;51.058;6.922;2023-12-14T08:40:48;6.80;99.90
5009;DHT22;2523;51.058;6.922;2023-12-14T08:43:13;6.80;99.90
5009;DHT22;2523;51.058;6.922;2023-12-14T08:45:40;6.80;99.90
5009;DHT22;2523;51.058;6.922;2023-12-14T08:48:06;6.70;99.90
5009;DHT22;2523;51.058;6.922;2023-12-14T08:50:31;6.70;99.90
5009;DHT22;2523;51.058;6.922;2023-12-14T08:52:57;6.70;99.90
5009;DHT22;2523;51.058;6.922;2023-12-14T08:55:26;6.60;99.90
5009;DHT22;2523;51.058;6.922;2023-12-14T08:57:52;6.70;99.90
5009;DHT22;2523;51.058;6.922;2023-12-14T09:00:18;6.70;99.90
5009;DHT22;2523;51.058;6.922;2023-12-14T09:02:44;6.60;99.90
5009;DHT22;2523;51.058;6.922;2023-12-14T09:05:12;6.60;99.90
5009;DHT22;2523;51.058;6.922;2023-12-14T09:07:38;6.60;99.90
5009;DHT22;2523;51.058;6.922;2023-12-14T09:10:04;6.60;99.90
5009;DHT22;2523;51.058;6.922;2023-12-14T09:12:29;6.50;99.90
5009;DHT22;2523;51.058;6.922;2023-12-14T09:14:55;6.50;99.90
5009;DHT22;2523;51.058;6.922;2023-12-14T09:17:21;6.50;99.90
5009;DHT22;2523;51.058;6.922;2023-12-14T09:19:46;6.50;99.90
5009;DHT22;2523;51.058;6.922;2023-12-14T09:22:12;6.50;99.90
5009;DHT22;2523;51.058;6.922;2023-12-14T09:24:38;6.50;99.90
5009;DHT22;2523;51.058;6.922;2023-12-14T09:27:03;6.60;99.90
5009;DHT22;2523;51.058;6.922;2023-12-14T09:29:29;6.50;99.90
5009;DHT22;2523;51.058;6.922;2023-12-14T09:31:54;6.50;99.90
5009;DHT22;2523;51.058;6.922;2023-12-14T09:34:20;6.50;99.90
5009;DHT22;2523;51.058;6.922;2023-12-14T09:36:45;6.50;99.90
5009;DHT22;2523;51.058;6.922;2023-12-14T09:39:11;6.40;99.90
5009;DHT22;2523;51.058;6.922;2023-12-14T09:41:37;6.50;99.90
5009;DHT22;2523;51.058;6.922;2023-12-14T09:44:05;6.40;99.90
5009;DHT22;2523;51.058;6.922;2023-12-14T09:46:33;6.50;99.90
5009;DHT22;2523;51.058;6.922;2023-12-14T09:49:00;6.40;99.90
5009;DHT22;2523;51.058;6.922;2023-12-14T09:51:26;6.50;99.90
5009;DHT22;2523;51.058;6.922;2023-12-14T09:53:52;6.50;99.90
5009;DHT22;2523;51.058;6.922;2023-12-14T09:56:26;6.50;99.90
5009;DHT22;2523;51.058;6.922;2023-12-14T09:58:53;6.50;99.90
5009;DHT22;2523;51.058;6.922;2023-12-14T10:01:26;6.50;99.90
5009;DHT22;2523;51.058;6.922;2023-12-14T10:06:33;6.50;99.90
5009;DHT22;2523;51.058;6.922;2023-12-14T10:08:58;6.50;99.90
5009;DHT22;2523;51.058;6.922;2023-12-14T10:11:24;6.50;99.90
5009;DHT22;2523;51.058;6.922;2023-12-14T10:13:49;6.60;99.90
5009;DHT22;2523;51.058;6.922;2023-12-14T10:16:32;6.50;99.90
5009;DHT22;2523;51.058;6.922;2023-12-14T10:18:58;6.50;99.90
5009;DHT22;2523;51.058;6.922;2023-12-14T10:21:28;6.50;99.90
5009;DHT22;2523;51.058;6.922;2023-12-14T10:23:56;6.60;99.90
5009;DHT22;2523;51.058;6.922;2023-12-14T10:26:23;6.60;99.90
5009;DHT22;2523;51.058;6.922;2023-12-14T10:28:52;6.60;99.90
5009;DHT22;2523;51.058;6.922;2023-12-14T10:31:18;6.60;99.90
5009;DHT22;2523;51.058;6.922;2023-12-14T10:33:47;6.70;99.90
5009;DHT22;2523;51.058;6.922;2023-12-14T10:36:15;6.60;99.90
5009;DHT22;2523;51.058;6.922;2023-12-14T10:38:43;6.60;99.90
5009;DHT22;2523;51.058;6.922;2023-12-14T10:41:12;6.50;99.90
5009;DHT22;2523;51.058;6.922;2023-12-14T10:43:39;6.50;99.90
5009;DHT22;2523;51.058;6.922;2023-12-14T10:46:07;6.50;99.90
5009;DHT22;2523;51.058;6.922;2023-12-14T10:48:35;6.50;99.90
5009;DHT22;2523;51.058;6.922;2023-12-14T10:51:05;6.60;99.90
5009;DHT22;2523;51.058;6.922;2023-12-14T10:53:32;6.50;99.90
5009;DHT22;2523;51.058;6.922;2023-12-14T10:56:00;6.50;99.90
5009;DHT22;2523;51.058;6.922;2023-12-14T10:59:02;6.60;99.90
5009;DHT22;2523;51.058;6.922;2023-12-14T11:01:28;6.60;99.90
5009;DHT22;2523;51.058;6.922;2023-12-14T11:03:59;6.60;99.90
5009;DHT22;2523;51.058;6.922;2023-12-14T11:08:54;6.60;99.90
5009;DHT22;2523;51.058;6.922;2023-12-14T11:11:21;6.60;99.90
5009;DHT22;2523;51.058;6.922;2023-12-14T11:13:53;6.60;99.90
5009;DHT22;2523;51.058;6.922;2023-12-14T11:16:26;6.60;99.90
5009;DHT22;2523;51.058;6.922;2023-12-14T11:24:23;6.60;99.90
5009;DHT22;2523;51.058;6.922;2023-12-14T11:26:50;6.70;99.90
5009;DHT22;2523;51.058;6.922;2023-12-14T11:29:17;6.60;99.90
5009;DHT22;2523;51.058;6.922;2023-12-14T11:31:42;6.60;99.90
5009;DHT22;2523;51.058;6.922;2023-12-14T11:34:08;6.50;99.90
5009;DHT22;2523;51.058;6.922;2023-12-14T11:36:33;6.60;99.90
5009;DHT22;2523;51.058;6.922;2023-12-14T11:38:59;6.60;99.90
5009;DHT22;2523;51.058;6.922;2023-12-14T11:41:24;6.50;99.90
5009;DHT22;2523;51.058;6.922;2023-12-14T11:43:51;6.60;99.90
5009;DHT22;2523;51.058;6.922;2023-12-14T11:46:17;6.50;99.90
5009;DHT22;2523;51.058;6.922;2023-12-14T11:48:47;6.50;99.90
5009;DHT22;2523;51.058;6.922;2023-12-14T11:51:15;6.50;99.90
5009;DHT22;2523;51.058;6.922;2023-12-14T11:53:44;6.50;99.90
5009;DHT22;2523;51.058;6.922;2023-12-14T11:56:10;6.50;99.90
5009;DHT22;2523;51.058;6.922;2023-12-14T11:58:35;6.60;99.90
5009;DHT22;2523;51.058;6.922;2023-12-14T12:01:18;6.50;99.90
5009;DHT22;2523;51.058;6.922;2023-12-14T12:03:45;6.50;99.90
5009;DHT22;2523;51.058;6.922;2023-12-14T12:06:24;6.50;99.90
5009;DHT22;2523;51.058;6.922;2023-12-14T12:08:51;6.60;99.90
5009;DHT22;2523;51.058;6.922;2023-12-14T12:11:24;6.50;99.90
5009;DHT22;2523;51.058;6.922;2023-12-14T12:13:59;6.60;99.90
5009;DHT22;2523;51.058;6.922;2023-12-14T12:16:25;6.60;99.90
5009;DHT22;2523;51.058;6.922;2023-12-14T12:18:51;6.60;99.90
5009;DHT22;2523;51.058;6.922;2023-12-14T12:21:17;6.60;99.90
5009;DHT22;2523;51.058;6.922;2023-12-14T12:23:42;6.70;99.90
5009;DHT22;2523;51.058;6.922;2023-12-14T12:26:08;6.60;99.90
5009;DHT22;2523;51.058;6.922;2023-12-14T12:28:34;6.70;99.90
5009;DHT22;2523;51.058;6.922;2023-12-14T12:31:00;6.70;99.90
5009;DHT22;2523;51.058;6.922;2023-12-14T12:33:25;6.70;99.90
5009;DHT22;2523;51.058;6.922;2023-12-14T12:35:52;6.70;99.90
5009;DHT22;2523;51.058;6.922;2023-12-14T12:38:17;6.70;99.90
5009;DHT22;2523;51.058;6.922;2023-12-14T12:40:44;6.80;99.90
5009;DHT22;2523;51.058;6.922;2023-12-14T12:43:10;6.80;99.90
5009;DHT22;2523;51.058;6.922;2023-12-14T12:45:36;6.80;99.90
5009;DHT22;2523;51.058;6.922;2023-12-14T12:48:03;6.80;99.90
5009;DHT22;2523;51.058;6.922;2023-12-14T12:50:29;6.90;99.90
5009;DHT22;2523;51.058;6.922;2023-12-14T12:52:56;6.80;99.90
5009;DHT22;2523;51.058;6.922;2023-12-14T12:55:21;6.80;99.90
5009;DHT22;2523;51.058;6.922;2023-12-14T12:57:48;6.70;99.90
5009;DHT22;2523;51.058;6.922;2023-12-14T13:00:14;6.60;99.90
5009;DHT22;2523;51.058;6.922;2023-12-14T13:02:41;6.70;99.90
5009;DHT22;2523;51.058;6.922;2023-12-14T13:05:07;6.60;99.90
5009;DHT22;2523;51.058;6.922;2023-12-14T13:07:34;6.60;99.90
5009;DHT22;2523;51.058;6.922;2023-12-14T13:09:59;6.60;99.90
5009;DHT22;2523;51.058;6.922;2023-12-14T13:12:25;6.60;99.90
5009;DHT22;2523;51.058;6.922;2023-12-14T13:14:51;6.60;99.90
5009;DHT22;2523;51.058;6.922;2023-12-14T13:17:17;6.40;99.90
5009;DHT22;2523;51.058;6.922;2023-12-14T13:19:44;6.50;99.90
5009;DHT22;2523;51.058;6.922;2023-12-14T13:22:09;6.40;99.90
5009;DHT22;2523;51.058;6.922;2023-12-14T13:24:37;6.40;99.90
5009;DHT22;2523;51.058;6.922;2023-12-14T13:27:03;6.40;99.90
5009;DHT22;2523;51.058;6.922;2023-12-14T13:29:29;6.40;99.90
5009;DHT22;2523;51.058;6.922;2023-12-14T13:31:57;6.40;99.90
5009;DHT22;2523;51.058;6.922;2023-12-14T13:34:22;6.40;99.90
5009;DHT22;2523;51.058;6.922;2023-12-14T13:36:48;6.40;99.90
5009;DHT22;2523;51.058;6.922;2023-12-14T13:39:13;6.40;99.90
5009;DHT22;2523;51.058;6.922;2023-12-14T13:41:39;6.40;99.90
5009;DHT22;2523;51.058;6.922;2023-12-14T13:44:05;6.40;99.90
5009;DHT22;2523;51.058;6.922;2023-12-14T13:46:30;6.50;99.90
5009;DHT22;2523;51.058;6.922;2023-12-14T13:48:56;6.50;99.90
5009;DHT22;2523;51.058;6.922;2023-12-14T13:51:22;6.50;99.90
5009;DHT22;2523;51.058;6.922;2023-12-14T13:53:47;6.40;99.90
5009;DHT22;2523;51.058;6.922;2023-12-14T13:56:13;6.40;99.90
5009;DHT22;2523;51.058;6.922;2023-12-14T13:58:38;6.40;99.90
5009;DHT22;2523;51.058;6.922;2023-12-14T14:01:05;6.40;99.90
5009;DHT22;2523;51.058;6.922;2023-12-14T14:03:34;6.40;99.90
5009;DHT22;2523;51.058;6.922;2023-12-14T14:06:01;6.40;99.90
5009;DHT22;2523;51.058;6.922;2023-12-14T14:08:27;6.40;99.90
5009;DHT22;2523;51.058;6.922;2023-12-14T14:10:53;6.40;99.90
5009;DHT22;2523;51.058;6.922;2023-12-14T14:13:18;6.40;99.90
5009;DHT22;2523;51.058;6.922;2023-12-14T14:15:45;6.40;99.90
5009;DHT22;2523;51.058;6.922;2023-12-14T14:18:11;6.30;99.90
5009;DHT22;2523;51.058;6.922;2023-12-14T14:20:37;6.30;99.90
5009;DHT22;2523;51.058;6.922;2023-12-14T14:23:02;6.20;99.90
5009;DHT22;2523;51.058;6.922;2023-12-14T14:25:28;6.20;99.90
5009;DHT22;2523;51.058;6.922;2023-12-14T14:27:53;6.20;99.90
5009;DHT22;2523;51.058;6.922;2023-12-14T14:30:19;6.20;99.90
5009;DHT22;2523;51.058;6.922;2023-12-14T14:32:44;6.10;99.90
5009;DHT22;2523;51.058;6.922;2023-12-14T14:35:10;6.10;99.90
5009;DHT22;2523;51.058;6.922;2023-12-14T14:37:36;6.10;99.90
5009;DHT22;2523;51.058;6.922;2023-12-14T14:40:02;6.10;99.90
5009;DHT22;2523;51.058;6.922;2023-12-14T14:42:29;6.10;99.90
5009;DHT22;2523;51.058;6.922;2023-12-14T14:44:55;5.90;99.90
5009;DHT22;2523;51.058;6.922;2023-12-14T14:47:21;5.90;99.90
5009;DHT22;2523;51.058;6.922;2023-12-14T14:49:47;5.80;99.90
5009;DHT22;2523;51.058;6.922;2023-12-14T14:52:12;5.80;99.90
5009;DHT22;2523;51.058;6.922;2023-12-14T14:54:38;5.80;99.90
5009;DHT22;2523;51.058;6.922;2023-12-14T14:57:06;5.80;99.90
5009;DHT22;2523;51.058;6.922;2023-12-14T14:59:31;5.80;99.90
5009;DHT22;2523;51.058;6.922;2023-12-14T15:01:57;5.80;99.90
5009;DHT22;2523;51.058;6.922;2023-12-14T15:04:25;5.80;99.90
5009;DHT22;2523;51.058;6.922;2023-12-14T15:06:51;5.80;99.90
5009;DHT22;2523;51.058;6.922;2023-12-14T15:09:16;5.90;99.90
5009;DHT22;2523;51.058;6.922;2023-12-14T15:11:42;5.90;99.90
5009;DHT22;2523;51.058;6.922;2023-12-14T15:14:07;5.90;99.90
5009;DHT22;2523;51.058;6.922;2023-12-14T15:16:33;5.80;99.90
5009;DHT22;2523;51.058;6.922;2023-12-14T15:18:59;5.90;99.90
5009;DHT22;2523;51.058;6.922;2023-12-14T15:21:24;5.90;99.90
5009;DHT22;2523;51.058;6.922;2023-12-14T15:23:50;6.00;99.90
5009;DHT22;2523;51.058;6.922;2023-12-14T15:26:16;5.90;99.90
5009;DHT22;2523;51.058;6.922;2023-12-14T15:28:42;5.90;99.90
5009;DHT22;2523;51.058;6.922;2023-12-14T15:31:08;5.90;99.90
5009;DHT22;2523;51.058;6.922;2023-12-14T15:33:34;6.00;99.90
5009;DHT22;2523;51.058;6.922;2023-12-14T15:35:59;6.00;99.90
5009;DHT22;2523;51.058;6.922;2023-12-14T15:38:26;6.00;99.90
5009;DHT22;2523;51.058;6.922;2023-12-14T15:40:53;6.00;99.90
5009;DHT22;2523;51.058;6.922;2023-12-14T15:43:19;6.00;99.90
5009;DHT22;2523;51.058;6.922;2023-12-14T15:45:44;6.00;99.90
5009;DHT22;2523;51.058;6.922;2023-12-14T15:48:10;6.00;99.90
5009;DHT22;2523;51.058;6.922;2023-12-14T15:50:36;6.00;99.90
5009;DHT22;2523;51.058;6.922;2023-12-14T15:53:03;5.90;99.90
5009;DHT22;2523;51.058;6.922;2023-12-14T15:55:29;5.90;99.90
5009;DHT22;2523;51.058;6.922;2023-12-14T15:57:55;5.90;99.90
5009;DHT22;2523;51.058;6.922;2023-12-14T16:00:20;5.90;99.90
5009;DHT22;2523;51.058;6.922;2023-12-14T16:02:46;5.90;99.90
5009;DHT22;2523;51.058;6.922;2023-12-14T16:05:12;5.90;99.90
5009;DHT22;2523;51.058;6.922;2023-12-14T16:07:37;5.90;99.90
5009;DHT22;2523;51.058;6.922;2023-12-14T16:10:03;5.90;99.90
5009;DHT22;2523;51.058;6.922;2023-12-14T16:12:29;5.90;99.90
5009;DHT22;2523;51.058;6.922;2023-12-14T16:14:54;5.90;99.90
5009;DHT22;2523;51.058;6.922;2023-12-14T16:17:22;5.90;99.90
5009;DHT22;2523;51.058;6.922;2023-12-14T16:19:48;5.90;99.90